createdAt,value
2023-04-18T00:02:07.122Z,18.52
2023-04-18T00:04:43.595Z,15.98
2023-04-18T00:07:22.073Z,16.48
2023-04-18T00:09:51.560Z,16.17
2023-04-18T00:12:18.878Z,16.90
2023-04-18T00:14:52.135Z,16.92
2023-04-18T00:17:22.400Z,17.15
2023-04-18T00:19:49.866Z,16.08
2023-04-18T00:22:22.985Z,18.50
2023-04-18T00:24:59.010Z,17.65
2023-04-18T00:27:27.585Z,20.08
2023-04-18T00:29:54.386Z,19.40
2023-04-18T00:32:21.164Z,20.08
2023-04-18T00:34:59.161Z,19.30
2023-04-18T00:37:37.731Z,19.67
2023-04-18T00:40:09.657Z,18.20
2023-04-18T00:42:36.651Z,17.27
2023-04-18T00:45:03.851Z,19.50
2023-04-18T00:47:33.424Z,18.58
2023-04-18T00:50:09.047Z,19.15
2023-04-18T00:55:33.037Z,18.45
2023-04-18T00:57:59.849Z,18.45
2023-04-18T01:00:30.938Z,17.00
2023-04-18T01:03:03.898Z,18.58
2023-04-18T01:05:36.737Z,17.92
2023-04-18T01:08:07.224Z,17.98
2023-04-18T01:10:43.499Z,16.50
2023-04-18T01:13:12.158Z,16.40
2023-04-18T01:15:57.537Z,16.25
2023-04-18T01:18:29.113Z,17.20
2023-04-18T01:21:06.196Z,16.85
2023-04-18T01:23:35.964Z,16.38
2023-04-18T01:26:07.549Z,16.67
2023-04-18T01:28:45.981Z,15.30
2023-04-18T01:31:16.949Z,15.10
2023-04-18T01:33:55.450Z,15.90
2023-04-18T01:36:22.260Z,14.40
2023-04-18T01:38:58.663Z,13.73
2023-04-18T01:41:25.644Z,13.20
2023-04-18T01:43:52.330Z,14.07
2023-04-18T01:46:21.391Z,13.90
2023-04-18T01:48:50.698Z,13.02
2023-04-18T01:51:20.730Z,12.63
2023-04-18T01:53:51.952Z,13.63
2023-04-18T01:56:19.135Z,12.32
2023-04-18T01:58:46.467Z,12.38
2023-04-18T02:01:13.702Z,11.50
2023-04-18T02:03:55.810Z,11.00
2023-04-18T02:06:22.828Z,12.20
2023-04-18T02:09:01.715Z,12.35
2023-04-18T02:11:28.696Z,11.73
2023-04-18T02:13:55.655Z,12.70
2023-04-18T02:16:33.973Z,12.30
2023-04-18T02:19:12.042Z,12.25
2023-04-18T02:21:46.383Z,13.82
2023-04-18T02:26:46.973Z,11.20
2023-04-18T02:29:13.621Z,10.90
2023-04-18T02:31:54.607Z,10.52
2023-04-18T02:34:21.474Z,10.65
2023-04-18T02:36:54.226Z,9.55
2023-04-18T02:39:24.034Z,9.63
2023-04-18T02:41:57.232Z,10.27
2023-04-18T02:44:24.008Z,10.30
2023-04-18T02:46:53.873Z,10.00
2023-04-18T02:49:20.721Z,9.48
2023-04-18T02:51:47.860Z,10.90
2023-04-18T02:54:14.780Z,9.73
2023-04-18T02:56:45.172Z,9.18
2023-04-18T02:59:12.251Z,9.10
2023-04-18T03:01:43.479Z,9.50
2023-04-18T03:04:10.647Z,9.93
2023-04-18T03:06:43.392Z,9.60
2023-04-18T03:09:20.658Z,10.18
2023-04-18T03:11:47.800Z,10.55
2023-04-18T03:14:18.125Z,9.88
2023-04-18T03:16:55.173Z,9.57
2023-04-18T03:19:22.317Z,9.70
2023-04-18T03:21:49.091Z,11.00
2023-04-18T03:24:20.208Z,10.32
2023-04-18T03:26:47.164Z,9.52
2023-04-18T03:29:13.888Z,8.95
2023-04-18T03:31:46.924Z,10.15
2023-04-18T03:34:24.201Z,9.15
2023-04-18T03:37:02.089Z,10.43
2023-04-18T03:39:28.908Z,9.50
2023-04-18T03:42:05.545Z,9.95
2023-04-18T03:44:32.417Z,9.02
2023-04-18T03:47:02.541Z,10.20
2023-04-18T03:49:46.392Z,9.35
2023-04-18T03:52:13.299Z,9.85
2023-04-18T03:54:43.051Z,9.27
2023-04-18T03:57:11.992Z,10.85
2023-04-18T03:59:48.014Z,10.55
2023-04-18T04:02:15.076Z,10.10
2023-04-18T04:05:14.997Z,10.05
2023-04-18T04:07:50.643Z,10.13
2023-04-18T04:10:17.425Z,10.88
2023-04-18T04:12:57.813Z,11.30
2023-04-18T04:15:30.039Z,12.77
2023-04-18T04:17:57.186Z,17.00
2023-04-18T04:20:25.705Z,9.93
2023-04-18T04:22:59.028Z,9.18
2023-04-18T04:25:30.652Z,10.20
2023-04-18T04:28:03.952Z,9.82
2023-04-18T04:30:30.827Z,10.10
2023-04-18T04:33:03.912Z,9.10
2023-04-18T04:35:36.756Z,9.68
2023-04-18T04:38:03.691Z,9.30
2023-04-18T04:40:37.894Z,9.52
2023-04-18T04:43:05.607Z,9.73
2023-04-18T04:48:27.206Z,8.93
2023-04-18T04:51:03.785Z,10.18
2023-04-18T04:53:30.916Z,9.18
2023-04-18T04:56:00.858Z,9.15
2023-04-18T04:58:28.612Z,9.43
2023-04-18T05:01:07.678Z,10.38
2023-04-18T05:03:37.754Z,10.73
2023-04-18T05:06:17.173Z,10.95
2023-04-18T05:09:07.929Z,10.95
2023-04-18T05:11:43.696Z,11.32
2023-04-18T05:14:13.596Z,10.32
2023-04-18T05:19:47.783Z,9.70
2023-04-18T05:22:16.779Z,10.30
2023-04-18T05:24:53.686Z,11.40
2023-04-18T05:27:24.960Z,10.80
2023-04-18T05:29:54.003Z,11.82
2023-04-18T05:32:21.640Z,11.77
2023-04-18T05:37:37.416Z,11.10
2023-04-18T05:40:06.929Z,12.80
2023-04-18T05:42:34.069Z,9.80
2023-04-18T05:45:05.826Z,12.00
2023-04-18T05:50:21.380Z,10.32
2023-04-18T05:53:07.836Z,11.55
2023-04-18T05:55:47.365Z,11.60
2023-04-18T06:01:07.093Z,11.45
2023-04-18T06:31:46.253Z,12.43
2023-04-18T06:34:13.518Z,11.95
2023-04-18T06:36:52.582Z,12.05
2023-04-18T06:39:41.405Z,13.48
2023-04-18T06:42:09.666Z,13.93
2023-04-18T06:44:37.058Z,13.43
2023-04-18T06:47:11.440Z,13.77
2023-04-18T06:49:48.378Z,14.57
2023-04-18T06:52:22.366Z,13.13
2023-04-18T06:54:55.914Z,13.75
2023-04-18T06:57:25.918Z,12.60
2023-04-18T06:59:52.856Z,11.73
2023-04-18T07:02:26.253Z,12.88
2023-04-18T07:05:16.759Z,11.65
2023-04-18T07:08:11.514Z,13.30
2023-04-18T07:10:47.403Z,11.48
2023-04-18T07:13:33.617Z,12.80
2023-04-18T07:16:34.973Z,14.82
2023-04-18T07:19:11.419Z,11.77
2023-04-18T07:21:44.509Z,11.60
2023-04-18T07:24:18.280Z,10.20
2023-04-18T07:27:02.835Z,12.05
2023-04-18T07:29:35.880Z,11.43
2023-04-18T07:32:15.742Z,11.68
2023-04-18T07:34:52.883Z,11.35
2023-04-18T07:37:24.149Z,11.85
2023-04-18T07:39:54.482Z,11.45
2023-04-18T07:42:21.379Z,11.93
2023-04-18T07:44:52.714Z,10.85
2023-04-18T07:47:30.579Z,11.20
2023-04-18T07:50:05.967Z,9.80
2023-04-18T07:52:32.965Z,11.02
2023-04-18T07:55:03.710Z,10.55
2023-04-18T07:57:36.135Z,10.10
2023-04-18T08:00:13.306Z,11.75
2023-04-18T08:02:45.801Z,10.68
2023-04-18T08:05:12.934Z,10.63
2023-04-18T08:07:56.015Z,11.05
2023-04-18T08:10:23.879Z,10.82
2023-04-18T08:12:50.929Z,10.23
2023-04-18T08:15:20.025Z,11.27
2023-04-18T08:17:53.911Z,10.43
2023-04-18T08:20:21.446Z,10.25
2023-04-18T08:25:33.657Z,10.13
2023-04-18T08:28:04.239Z,11.20
2023-04-18T08:30:44.331Z,9.82
2023-04-18T08:33:14.044Z,11.20
2023-04-18T08:35:48.916Z,10.73
2023-04-18T08:38:35.026Z,11.35
2023-04-18T08:41:10.607Z,10.82
2023-04-18T08:43:48.273Z,10.18
2023-04-18T08:46:41.715Z,9.55
2023-04-18T08:49:12.365Z,9.70
2023-04-18T08:51:54.319Z,9.57
2023-04-18T08:54:32.105Z,9.85
2023-04-18T08:57:23.920Z,10.10
2023-04-18T08:59:51.221Z,10.20
2023-04-18T09:02:23.480Z,10.00
2023-04-18T09:04:56.007Z,10.52
2023-04-18T09:07:37.413Z,10.70
2023-04-18T09:10:36.901Z,10.60
2023-04-18T09:13:09.438Z,11.82
2023-04-18T09:15:43.839Z,10.35
2023-04-18T09:18:18.352Z,10.95
2023-04-18T09:20:47.558Z,10.43
2023-04-18T09:23:27.091Z,10.73
2023-04-18T09:26:27.211Z,11.77
2023-04-18T09:28:55.498Z,9.82
2023-04-18T09:31:22.864Z,10.32
2023-04-18T09:34:32.028Z,13.32
2023-04-18T09:37:16.912Z,9.20
2023-04-18T09:39:47.780Z,11.27
2023-04-18T09:42:22.972Z,9.85
2023-04-18T09:45:17.249Z,11.50
2023-04-18T09:47:44.890Z,10.30
2023-04-18T09:50:12.601Z,9.32
2023-04-18T09:52:51.177Z,10.02
2023-04-18T09:55:22.522Z,9.93
2023-04-18T09:57:54.856Z,10.65
2023-04-18T10:00:30.836Z,9.43
2023-04-18T10:03:14.329Z,10.30
2023-04-18T10:05:51.433Z,10.45
2023-04-18T10:08:19.376Z,9.40
2023-04-18T10:10:53.603Z,10.27
2023-04-18T10:16:11.229Z,9.73
2023-04-18T10:19:28.849Z,11.38
2023-04-18T10:22:09.108Z,9.27
2023-04-18T10:24:57.179Z,9.65
2023-04-18T10:30:48.001Z,9.82
2023-04-18T10:36:12.463Z,9.02
2023-04-18T10:39:21.283Z,9.45
2023-04-18T10:41:56.717Z,10.18
2023-04-18T10:44:44.532Z,9.38
2023-04-18T10:47:28.448Z,9.57
2023-04-18T10:50:05.961Z,9.38
2023-04-18T10:52:34.183Z,9.02
2023-04-18T10:55:30.943Z,8.95
2023-04-18T10:58:07.527Z,10.10
2023-04-18T11:00:34.921Z,8.45
2023-04-18T11:03:09.764Z,9.05
2023-04-18T11:05:37.306Z,8.55
2023-04-18T11:08:26.063Z,9.80
2023-04-18T11:11:11.355Z,9.02
2023-04-18T11:13:54.720Z,8.80
2023-04-18T11:16:34.514Z,7.72
2023-04-18T11:22:14.335Z,7.78
2023-04-18T11:25:14.161Z,8.25
2023-04-18T11:28:04.782Z,8.30
2023-04-18T11:30:48.207Z,8.82
2023-04-18T11:33:18.250Z,8.20
2023-04-18T11:36:00.874Z,8.48
2023-04-18T11:38:48.948Z,7.75
2023-04-18T11:41:18.743Z,8.18
2023-04-18T11:44:00.075Z,7.90
2023-04-18T11:46:43.258Z,7.57
2023-04-18T11:49:44.539Z,6.93
2023-04-18T11:52:47.694Z,8.55
2023-04-18T11:55:41.922Z,8.07
2023-04-18T11:58:14.815Z,7.65
2023-04-18T12:03:34.657Z,8.13
2023-04-18T12:06:12.302Z,8.93
2023-04-18T12:08:43.072Z,7.80
2023-04-18T12:11:21.608Z,7.88
2023-04-18T12:13:56.993Z,8.00
2023-04-18T12:16:28.275Z,8.55
2023-04-18T12:19:13.915Z,9.20
2023-04-18T12:22:06.737Z,8.23
2023-04-18T12:24:33.710Z,8.75
2023-04-18T12:27:03.497Z,7.72
2023-04-18T12:29:50.490Z,8.13
2023-04-18T12:32:18.751Z,8.40
2023-04-18T12:37:33.677Z,8.15
2023-04-18T12:42:32.620Z,8.23
2023-04-18T12:45:01.079Z,7.72
2023-04-18T12:47:42.145Z,8.52
2023-04-18T12:50:22.552Z,7.30
2023-04-18T12:55:52.659Z,7.15
2023-04-18T12:58:21.899Z,7.13
2023-04-18T13:00:52.647Z,7.10
2023-04-18T13:03:20.004Z,6.18
2023-04-18T13:05:52.367Z,6.30
2023-04-18T13:08:22.120Z,5.90
2023-04-18T13:11:01.676Z,5.80
2023-04-18T13:13:41.174Z,5.53
2023-04-18T13:16:07.998Z,5.30
2023-04-18T13:18:34.836Z,6.03
2023-04-18T13:21:01.686Z,5.68
2023-04-18T13:23:34.442Z,5.50
2023-04-18T13:26:01.287Z,5.30
2023-04-18T13:28:27.985Z,6.25
2023-04-18T13:30:54.643Z,5.20
2023-04-18T13:33:21.607Z,5.80
2023-04-18T13:35:48.448Z,6.05
2023-04-18T13:38:16.839Z,5.53
2023-04-18T13:41:01.300Z,4.75
2023-04-18T13:43:52.960Z,5.55
2023-04-18T13:49:27.536Z,5.05
2023-04-18T13:57:42.617Z,4.35
2023-04-18T14:14:00.366Z,5.45
2023-04-18T14:19:13.466Z,5.85
2023-04-18T14:24:24.632Z,5.03
2023-04-18T14:26:51.299Z,5.20
2023-04-18T14:29:18.149Z,4.88
2023-04-18T14:31:59.042Z,5.40
2023-04-18T14:34:25.797Z,5.07
2023-04-18T14:36:52.507Z,5.10
2023-04-18T14:39:19.279Z,5.00
2023-04-18T14:41:48.678Z,5.18
2023-04-18T14:44:17.409Z,5.30
2023-04-18T14:46:44.067Z,5.43
2023-04-18T14:49:10.780Z,4.97
2023-04-18T14:51:37.652Z,5.00
2023-04-18T14:54:04.556Z,4.68
2023-04-18T14:56:31.236Z,5.00
2023-04-18T14:58:59.921Z,4.97
2023-04-18T15:01:27.753Z,5.65
2023-04-18T15:03:58.621Z,5.32
2023-04-18T15:06:27.331Z,5.00
2023-04-18T15:08:57.195Z,5.40
2023-04-18T15:11:24.419Z,4.88
2023-04-18T15:13:51.159Z,5.88
2023-04-18T15:16:26.751Z,4.50
2023-04-18T15:18:53.594Z,5.15
2023-04-18T15:21:20.242Z,5.22
2023-04-18T15:23:47.148Z,4.80
2023-04-18T15:26:17.867Z,5.05
2023-04-18T15:29:07.548Z,5.07
2023-04-18T15:31:36.664Z,5.00
2023-04-18T15:34:08.228Z,5.10
2023-04-18T15:36:39.866Z,4.78
2023-04-18T15:39:07.249Z,5.13
2023-04-18T15:41:49.490Z,5.53
2023-04-18T15:44:19.488Z,5.35
2023-04-18T15:46:46.288Z,5.65
2023-04-18T15:49:20.189Z,5.32
2023-04-18T15:51:50.105Z,5.85
2023-04-18T15:54:19.383Z,5.53
2023-04-18T15:56:49.293Z,5.93
2023-04-18T15:59:19.176Z,5.40
2023-04-18T16:01:46.453Z,5.50
2023-04-18T16:04:20.742Z,5.75
2023-04-18T16:06:47.674Z,6.25
2023-04-18T16:09:19.564Z,5.82
2023-04-18T16:11:46.834Z,5.22
2023-04-18T16:14:21.662Z,5.88
2023-04-18T16:16:48.560Z,5.10
2023-04-18T16:19:38.453Z,6.28
2023-04-18T16:22:07.147Z,5.18
2023-04-18T16:24:33.950Z,5.97
2023-04-18T16:27:08.128Z,5.15
2023-04-18T16:32:04.246Z,4.97
2023-04-18T16:34:31.031Z,5.25
2023-04-18T16:36:57.750Z,5.30
2023-04-18T16:39:24.483Z,5.38
2023-04-18T16:41:53.628Z,5.07
2023-04-18T16:44:20.474Z,5.05
2023-04-18T16:46:54.812Z,4.60
2023-04-18T17:02:55.787Z,4.53
2023-04-18T17:13:36.939Z,3.85
2023-04-18T17:29:54.616Z,4.28
2023-04-18T17:45:53.648Z,4.72
2023-04-18T17:48:27.400Z,3.63
2023-04-18T17:50:56.792Z,3.88
2023-04-18T17:53:23.655Z,4.55
2023-04-18T17:55:52.303Z,3.85
2023-04-18T17:58:31.490Z,3.92
2023-04-18T18:09:05.441Z,3.83
2023-04-18T18:11:35.234Z,4.07
2023-04-18T18:16:45.928Z,4.47
2023-04-18T18:22:03.678Z,3.78
2023-04-18T18:24:31.490Z,3.85
2023-04-18T18:26:58.985Z,3.90
2023-04-18T18:32:09.342Z,3.92
2023-04-18T18:34:36.242Z,4.50
2023-04-18T18:37:03.026Z,4.68
2023-04-18T18:39:29.892Z,3.95
2023-04-18T18:41:58.268Z,4.60
2023-04-18T18:47:31.744Z,4.30
2023-04-18T18:50:08.900Z,4.30
2023-04-18T18:55:21.551Z,4.50
2023-04-18T19:11:28.437Z,5.10
2023-04-18T19:13:55.275Z,5.22
2023-04-18T19:16:22.445Z,4.45
2023-04-18T19:18:55.150Z,4.57
2023-04-18T19:21:42.235Z,4.00
2023-04-18T19:32:29.134Z,3.97
2023-04-18T19:34:56.221Z,3.92
2023-04-18T19:37:32.467Z,3.97
2023-04-18T19:56:28.118Z,4.25
2023-04-18T20:04:23.224Z,3.97
2023-04-18T20:06:56.289Z,5.03
2023-04-18T20:20:14.039Z,5.57
2023-04-18T20:22:44.983Z,5.70
2023-04-18T20:25:11.838Z,6.35
2023-04-18T20:27:38.600Z,6.85
2023-04-18T20:30:12.610Z,5.22
2023-04-18T20:46:26.950Z,5.10
2023-04-18T20:48:53.597Z,5.43
2023-04-18T20:51:20.314Z,5.28
2023-04-18T20:53:49.841Z,4.70
2023-04-18T20:56:16.776Z,4.50
2023-04-18T20:58:47.830Z,4.80
2023-04-18T21:01:26.054Z,5.30
2023-04-18T21:03:55.938Z,5.57
2023-04-18T21:06:27.035Z,4.60
2023-04-18T21:08:54.394Z,5.00
2023-04-18T21:11:21.204Z,5.03
2023-04-18T21:13:47.989Z,5.20
2023-04-18T21:16:14.961Z,5.85
2023-04-18T21:18:42.176Z,5.35
2023-04-18T21:21:09.018Z,5.90
2023-04-18T21:23:44.940Z,5.53
2023-04-18T21:26:17.149Z,5.13
2023-04-18T21:29:04.568Z,5.60
2023-04-18T21:31:38.053Z,5.82
2023-04-18T21:34:05.636Z,6.20
2023-04-18T21:36:33.129Z,5.55
2023-04-18T21:39:01.408Z,6.78
2023-04-18T21:41:28.373Z,6.75
2023-04-18T21:43:55.178Z,6.05
2023-04-18T21:46:28.310Z,5.45
2023-04-18T21:49:01.792Z,5.68
2023-04-18T21:51:31.862Z,6.50
2023-04-18T21:53:59.449Z,5.80
2023-04-18T21:56:28.993Z,5.47
2023-04-18T21:58:55.781Z,6.68
2023-04-18T22:01:34.829Z,6.15
2023-04-18T22:04:05.661Z,6.53
2023-04-18T22:06:33.517Z,6.55
2023-04-18T22:09:03.378Z,7.15
2023-04-18T22:11:32.209Z,6.43
2023-04-18T22:14:00.442Z,6.95
2023-04-18T22:16:28.674Z,6.75
2023-04-18T22:18:55.569Z,6.60
2023-04-18T22:21:22.282Z,6.20
2023-04-18T22:23:49.071Z,6.70
2023-04-18T22:26:16.126Z,5.85
2023-04-18T22:28:47.693Z,7.25
2023-04-18T22:31:17.487Z,6.20
2023-04-18T22:33:47.603Z,7.03
2023-04-18T22:36:17.496Z,6.63
2023-04-18T22:38:50.178Z,6.22
2023-04-18T22:41:16.853Z,5.63
2023-04-18T22:43:43.944Z,7.35
2023-04-18T22:46:15.788Z,5.35
2023-04-18T22:48:48.835Z,5.78
2023-04-18T22:51:15.555Z,6.38
2023-04-18T22:53:44.821Z,5.88
2023-04-18T22:56:11.549Z,7.43
2023-04-18T23:01:24.610Z,5.57
2023-04-18T23:03:51.467Z,7.20
2023-04-18T23:06:18.287Z,5.70
2023-04-18T23:08:45.407Z,7.05
2023-04-18T23:11:14.011Z,6.10
2023-04-18T23:13:44.465Z,5.70
2023-04-18T23:16:18.884Z,5.38
2023-04-18T23:18:53.352Z,5.95
2023-04-18T23:23:55.658Z,6.35
2023-04-18T23:26:28.581Z,5.53
2023-04-18T23:28:55.350Z,5.63
2023-04-18T23:31:34.219Z,5.50
2023-04-18T23:34:00.987Z,5.22
2023-04-18T23:36:31.091Z,5.20
2023-04-18T23:38:57.848Z,6.10
2023-04-18T23:41:24.637Z,5.18
2023-04-18T23:43:51.405Z,4.75
2023-04-18T23:46:18.254Z,4.63
2023-04-18T23:48:54.633Z,4.80
2023-04-18T23:51:21.353Z,4.70
2023-04-18T23:53:49.635Z,4.80
2023-04-18T23:56:22.138Z,4.88
2023-04-18T23:58:53.779Z,4.40
